Time;durP1;ratioP1;P1;durP2;ratioP2;P2;SDS_P1;SDS_P2;PMS_P1;PMS_P2;Temp;Humidity;BMP_temperature;BMP_pressure;BME280_temperature;BME280_humidity;BME280_pressure;Samples;Min_cycle;Max_cycle;Signal;HPM_P1;HPM_P2
2021/09/18 00:02:24;;;;;;;6.03;4.53;;;13.30;87.40;;;;;;5042500;28;20340;-70
2021/09/18 00:04:50;;;;;;;5.53;4.50;;;13.30;87.30;;;;;;5025298;28;20033;-72
2021/09/18 00:07:16;;;;;;;4.67;4.17;;;13.30;87.30;;;;;;5008768;28;20346;-72
2021/09/18 00:09:42;;;;;;;5.03;3.77;;;13.20;87.80;;;;;;5025020;28;20026;-71
2021/09/18 00:12:08;;;;;;;6.57;4.17;;;13.30;87.80;;;;;;5042433;28;20033;-71
2021/09/18 00:14:37;;;;;;;4.73;3.57;;;13.20;88.10;;;;;;5042679;28;20308;-71
2021/09/18 00:17:03;;;;;;;5.28;4.57;;;13.10;88.10;;;;;;5025546;28;20068;-71
2021/09/18 00:19:29;;;;;;;6.20;4.35;;;13.20;88.10;;;;;;5041878;28;20025;-71
2021/09/18 00:21:55;;;;;;;5.13;4.60;;;13.20;87.70;;;;;;5028247;28;20398;-71
2021/09/18 00:24:21;;;;;;;6.40;4.60;;;13.10;88.10;;;;;;5062231;28;20315;-70
2021/09/18 00:26:47;;;;;;;5.80;4.40;;;13.00;88.20;;;;;;5044773;28;20312;-72
2021/09/18 00:29:13;;;;;;;6.73;5.10;;;12.90;88.70;;;;;;5062485;28;20088;-71
2021/09/18 00:31:38;;;;;;;6.23;4.67;;;13.00;89.00;;;;;;5062066;28;20067;-71
2021/09/18 00:34:04;;;;;;;7.20;4.57;;;13.00;88.90;;;;;;5044853;28;20017;-71
2021/09/18 00:36:30;;;;;;;5.90;4.60;;;13.00;88.90;;;;;;5062398;28;20027;-72
2021/09/18 00:38:56;;;;;;;6.30;4.20;;;13.10;88.60;;;;;;5062116;28;20040;-72
2021/09/18 00:41:22;;;;;;;5.47;4.63;;;13.10;88.40;;;;;;5044330;28;20020;-72
2021/09/18 00:43:53;;;;;;;6.33;5.00;;;13.10;88.20;;;;;;5044790;28;20036;-72
2021/09/18 00:46:19;;;;;;;6.70;5.20;;;13.10;88.30;;;;;;5044551;28;20040;-72
2021/09/18 00:48:45;;;;;;;5.70;4.57;;;13.10;88.60;;;;;;5060105;28;20024;-72
2021/09/18 00:51:11;;;;;;;8.18;5.00;;;13.10;88.70;;;;;;5007997;28;20029;-72
2021/09/18 00:53:37;;;;;;;5.53;4.67;;;13.20;88.40;;;;;;5008547;28;20216;-72
2021/09/18 00:56:03;;;;;;;6.13;4.40;;;13.10;88.30;;;;;;5033225;28;20024;-72
2021/09/18 00:58:28;;;;;;;5.53;4.60;;;13.20;88.20;;;;;;5011833;28;20013;-72
2021/09/18 01:00:54;;;;;;;6.47;4.87;;;13.30;87.90;;;;;;5061820;28;20051;-72
2021/09/18 01:03:20;;;;;;;7.00;5.15;;;13.30;87.60;;;;;;5043560;28;20021;-71
2021/09/18 01:05:46;;;;;;;6.37;5.17;;;13.40;87.10;;;;;;5044436;28;20035;-70
2021/09/18 01:08:12;;;;;;;5.90;4.43;;;13.30;87.10;;;;;;5043764;28;20092;-71
2021/09/18 01:10:38;;;;;;;6.93;4.97;;;13.30;87.10;;;;;;5060919;28;20024;-72
2021/09/18 01:13:07;;;;;;;6.10;4.78;;;13.20;87.70;;;;;;5044018;28;20192;-71
2021/09/18 01:15:35;;;;;;;6.85;5.22;;;13.20;87.60;;;;;;5043917;28;20075;-71
2021/09/18 01:18:02;;;;;;;6.53;4.93;;;13.10;88.20;;;;;;5027787;28;20029;-72
2021/09/18 01:20:29;;;;;;;7.32;4.25;;;13.10;88.20;;;;;;5044588;28;20031;-72
2021/09/18 01:22:59;;;;;;;5.78;4.53;;;13.20;87.90;;;;;;5045133;28;20029;-71
2021/09/18 01:25:26;;;;;;;6.22;4.53;;;13.10;87.90;;;;;;5031101;28;20024;-70
2021/09/18 01:27:52;;;;;;;6.15;4.63;;;13.10;87.80;;;;;;5051343;28;20074;-71
2021/09/18 01:30:20;;;;;;;6.22;4.95;;;13.20;88.00;;;;;;5032410;28;20028;-71
2021/09/18 01:32:46;;;;;;;6.32;4.70;;;13.20;88.00;;;;;;5030302;28;20036;-71
2021/09/18 01:35:12;;;;;;;6.33;4.77;;;13.20;88.30;;;;;;5028406;28;20018;-71
2021/09/18 01:37:37;;;;;;;6.17;4.60;;;13.20;88.30;;;;;;5045210;28;20370;-71
2021/09/18 01:40:05;;;;;;;6.37;4.83;;;13.30;88.30;;;;;;5028032;28;20025;-71
2021/09/18 01:42:30;;;;;;;5.47;4.05;;;13.30;88.00;;;;;;5011178;28;20271;-71
2021/09/18 01:44:56;;;;;;;6.47;5.10;;;13.40;87.60;;;;;;5027722;28;20033;-71
2021/09/18 01:47:22;;;;;;;6.10;4.77;;;13.40;87.70;;;;;;5045288;28;20057;-71
2021/09/18 01:49:48;;;;;;;7.03;5.03;;;13.20;88.20;;;;;;5045210;28;20041;-71
2021/09/18 01:52:47;;;;;;;6.93;4.37;;;13.20;88.40;;;;;;5044812;28;20021;-71
2021/09/18 01:55:06;;;;;;;7.28;5.05;;;13.20;88.40;;;;;;5042902;28;20025;-71
2021/09/18 01:57:32;;;;;;;5.80;5.00;;;13.30;88.30;;;;;;5044797;28;20127;-71
2021/09/18 02:00:02;;;;;;;6.30;4.83;;;13.30;88.10;;;;;;5044501;28;20029;-71
2021/09/18 02:02:27;;;;;;;6.75;4.85;;;13.30;88.20;;;;;;5011260;28;20021;-71
2021/09/18 02:04:53;;;;;;;6.77;5.30;;;13.40;87.80;;;;;;5044983;28;20276;-71
2021/09/18 02:07:21;;;;;;;6.33;4.43;;;13.30;87.70;;;;;;5050206;28;20035;-71
2021/09/18 02:09:47;;;;;;;8.57;5.70;;;13.30;87.50;;;;;;5052752;28;20314;-71
2021/09/18 02:12:13;;;;;;;7.17;5.53;;;13.30;87.80;;;;;;5044494;28;20017;-71
2021/09/18 02:14:38;;;;;;;8.57;6.17;;;13.30;88.10;;;;;;5044768;28;20044;-71
2021/09/18 02:17:04;;;;;;;8.80;6.65;;;13.30;88.40;;;;;;5043998;28;20032;-71
2021/09/18 02:19:30;;;;;;;7.60;5.80;;;13.20;88.80;;;;;;5044809;28;20022;-72
2021/09/18 02:21:56;;;;;;;8.50;6.20;;;13.30;88.70;;;;;;5043814;28;20266;-70
2021/09/18 02:24:21;;;;;;;8.77;5.87;;;13.30;88.50;;;;;;5044317;28;20067;-71
2021/09/18 02:26:47;;;;;;;9.20;5.37;;;13.30;88.40;;;;;;5044449;28;20048;-71
2021/09/18 02:29:13;;;;;;;7.77;5.23;;;13.30;88.40;;;;;;5026909;28;20028;-71
2021/09/18 02:31:39;;;;;;;7.30;5.00;;;13.40;88.00;;;;;;5044054;28;20185;-71
2021/09/18 02:34:04;;;;;;;7.00;4.83;;;13.40;87.60;;;;;;5044415;28;20028;-71
2021/09/18 02:36:30;;;;;;;8.57;5.33;;;13.40;87.60;;;;;;5043446;28;20343;-72
2021/09/18 02:38:56;;;;;;;7.23;5.33;;;13.40;87.50;;;;;;5043479;28;20021;-71
2021/09/18 02:41:22;;;;;;;7.65;5.68;;;13.40;87.70;;;;;;5043921;28;20338;-72
2021/09/18 02:43:48;;;;;;;6.50;4.90;;;13.30;88.10;;;;;;5044212;28;20033;-72
2021/09/18 02:46:13;;;;;;;7.60;5.60;;;13.30;88.20;;;;;;5044041;28;20089;-72
2021/09/18 02:48:39;;;;;;;6.07;4.77;;;13.30;88.20;;;;;;5044114;28;20085;-72
2021/09/18 02:51:05;;;;;;;10.03;5.90;;;13.20;88.70;;;;;;5042949;28;20495;-71
2021/09/18 02:53:31;;;;;;;8.00;6.20;;;13.20;88.90;;;;;;5044000;28;20029;-72
2021/09/18 02:55:59;;;;;;;10.48;6.07;;;13.30;89.20;;;;;;5044003;28;20302;-72
2021/09/18 02:58:24;;;;;;;7.75;4.85;;;13.30;89.20;;;;;;5043257;28;20017;-72
2021/09/18 03:00:50;;;;;;;7.93;5.73;;;13.20;89.20;;;;;;5026078;28;20025;-72
2021/09/18 03:03:16;;;;;;;8.38;6.00;;;13.10;89.60;;;;;;5042978;28;20028;-72
2021/09/18 03:05:42;;;;;;;8.37;5.60;;;13.10;89.80;;;;;;5026104;28;20044;-72
2021/09/18 03:08:07;;;;;;;8.40;5.88;;;13.10;89.70;;;;;;5043643;28;20029;-72
2021/09/18 03:10:33;;;;;;;6.93;5.17;;;13.10;89.90;;;;;;5025987;28;20041;-72
2021/09/18 03:12:59;;;;;;;12.03;5.77;;;13.10;90.00;;;;;;5043331;28;20028;-72
2021/09/18 03:15:25;;;;;;;9.63;5.50;;;13.10;90.00;;;;;;5009790;28;20255;-72
2021/09/18 03:17:51;;;;;;;7.97;6.37;;;13.10;90.10;;;;;;5043302;28;20029;-72
2021/09/18 03:20:16;;;;;;;9.37;5.77;;;13.10;90.10;;;;;;5043366;28;20033;-72
2021/09/18 03:22:42;;;;;;;7.83;5.63;;;13.10;90.00;;;;;;5043182;28;20068;-72
2021/09/18 03:25:09;;;;;;;9.35;5.40;;;13.10;90.10;;;;;;5043482;28;20085;-72
2021/09/18 03:27:35;;;;;;;14.30;6.85;;;13.10;90.10;;;;;;5043238;28;20040;-72
2021/09/18 03:30:01;;;;;;;7.97;5.20;;;13.10;89.90;;;;;;5038311;28;20208;-72
2021/09/18 03:32:26;;;;;;;8.57;5.97;;;13.00;90.10;;;;;;5062907;28;20276;-72
2021/09/18 03:34:52;;;;;;;7.60;5.27;;;13.00;90.20;;;;;;5063187;28;20074;-72
2021/09/18 03:37:18;;;;;;;7.57;5.80;;;13.00;90.20;;;;;;5058491;28;20028;-72
2021/09/18 03:39:44;;;;;;;8.77;4.93;;;13.00;90.10;;;;;;5043158;28;20025;-71
2021/09/18 03:42:09;;;;;;;7.70;5.32;;;12.90;90.20;;;;;;5025393;28;20021;-72
2021/09/18 03:44:35;;;;;;;8.35;4.90;;;12.90;90.20;;;;;;5025447;28;20082;-72
2021/09/18 03:47:01;;;;;;;8.97;5.23;;;12.90;90.10;;;;;;5043031;28;20252;-72
2021/09/18 03:49:27;;;;;;;7.20;5.13;;;12.90;90.00;;;;;;5025167;28;20068;-72
2021/09/18 03:51:53;;;;;;;8.13;5.33;;;13.00;90.00;;;;;;5041908;28;20021;-72
2021/09/18 03:54:19;;;;;;;6.43;4.83;;;12.80;90.10;;;;;;5025445;28;20047;-72
2021/09/18 03:56:45;;;;;;;11.25;6.55;;;12.80;90.30;;;;;;5042859;28;20268;-72
2021/09/18 03:59:10;;;;;;;8.20;5.67;;;12.70;90.40;;;;;;5008960;28;20048;-72
2021/09/18 04:01:36;;;;;;;9.63;6.27;;;12.70;90.40;;;;;;5041762;28;20021;-72
2021/09/18 04:04:02;;;;;;;8.85;5.28;;;12.60;90.60;;;;;;5042735;28;20048;-71
2021/09/18 04:06:28;;;;;;;8.80;5.75;;;12.60;90.60;;;;;;5042799;28;20323;-72
2021/09/18 04:08:54;;;;;;;7.77;6.43;;;12.60;90.50;;;;;;5025374;28;20048;-72
2021/09/18 04:11:20;;;;;;;8.60;5.53;;;12.60;90.70;;;;;;5024430;28;20017;-72
2021/09/18 04:13:47;;;;;;;7.18;5.40;;;12.60;90.80;;;;;;5042548;28;20330;-72
2021/09/18 04:16:13;;;;;;;10.00;6.18;;;12.60;90.80;;;;;;5025036;28;20029;-71
2021/09/18 04:18:39;;;;;;;7.00;5.40;;;12.50;90.80;;;;;;5042698;28;20044;-72
2021/09/18 04:21:04;;;;;;;8.00;5.53;;;12.50;90.80;;;;;;5042187;28;20025;-71
2021/09/18 04:23:32;;;;;;;8.30;5.70;;;12.40;90.80;;;;;;5042253;28;20025;-72
2021/09/18 04:25:58;;;;;;;9.88;6.30;;;12.40;90.80;;;;;;5025212;28;20029;-72
2021/09/18 04:28:24;;;;;;;7.77;4.87;;;12.40;90.80;;;;;;5024832;28;20111;-72
2021/09/18 04:30:50;;;;;;;9.00;5.87;;;12.40;90.60;;;;;;5041562;28;20053;-72
2021/09/18 04:33:16;;;;;;;9.33;5.53;;;12.30;90.70;;;;;;5042409;28;20028;-71
2021/09/18 04:35:42;;;;;;;7.53;4.53;;;12.30;90.80;;;;;;5042490;28;20029;-72
2021/09/18 04:38:08;;;;;;;12.98;5.15;;;12.20;90.90;;;;;;5042476;28;20025;-72
2021/09/18 04:40:34;;;;;;;8.27;5.37;;;12.20;91.10;;;;;;5042360;28;20447;-72
2021/09/18 04:42:59;;;;;;;9.07;5.90;;;12.20;91.10;;;;;;5042167;28;20017;-72
2021/09/18 04:45:26;;;;;;;10.53;5.47;;;12.20;91.20;;;;;;5042269;28;20085;-71
2021/09/18 04:47:51;;;;;;;8.57;6.18;;;12.20;91.20;;;;;;5024867;28;20025;-72
2021/09/18 04:50:17;;;;;;;6.72;5.05;;;12.20;91.20;;;;;;5042363;28;20320;-72
2021/09/18 04:52:43;;;;;;;9.17;5.57;;;12.20;91.10;;;;;;5042071;28;20030;-72
2021/09/18 04:55:09;;;;;;;8.52;5.93;;;12.10;91.20;;;;;;5038433;28;20192;-72
2021/09/18 04:57:35;;;;;;;7.83;5.33;;;12.10;91.00;;;;;;5064390;28;20079;-71
2021/09/18 05:00:01;;;;;;;7.67;5.17;;;12.10;91.00;;;;;;5065336;28;20056;-72
2021/09/18 05:02:26;;;;;;;7.37;5.53;;;12.20;91.00;;;;;;5069174;28;20341;-71
2021/09/18 05:04:52;;;;;;;9.43;5.23;;;12.20;91.00;;;;;;5055713;28;20044;-72
2021/09/18 05:07:18;;;;;;;9.00;6.03;;;12.10;91.10;;;;;;5049991;28;20040;-72
2021/09/18 05:09:44;;;;;;;7.90;5.90;;;12.00;91.10;;;;;;5066456;28;20128;-72
2021/09/18 05:12:10;;;;;;;11.77;6.38;;;12.00;91.20;;;;;;5066297;28;20410;-72
2021/09/18 05:14:35;;;;;;;7.53;4.93;;;12.00;91.20;;;;;;5066049;28;20023;-72
2021/09/18 05:17:01;;;;;;;8.02;6.03;;;12.10;91.10;;;;;;5065648;28;20319;-72
2021/09/18 05:19:27;;;;;;;9.83;5.33;;;12.20;91.10;;;;;;5065594;28;20075;-72
2021/09/18 05:21:53;;;;;;;9.17;6.03;;;12.10;90.90;;;;;;5047448;28;20032;-72
2021/09/18 05:24:18;;;;;;;8.57;5.53;;;12.00;91.00;;;;;;5065748;28;20338;-72
2021/09/18 05:26:44;;;;;;;10.90;5.90;;;12.10;91.10;;;;;;5065440;28;20053;-72
2021/09/18 05:29:10;;;;;;;8.60;5.40;;;12.10;91.10;;;;;;5114157;22;20425;-70
2021/09/18 05:31:36;;;;;;;7.63;5.47;;;12.00;91.30;;;;;;5103382;28;20326;-71
2021/09/18 05:34:02;;;;;;;8.35;5.43;;;12.00;91.30;;;;;;5071267;28;20054;-70
2021/09/18 05:36:28;;;;;;;8.20;6.15;;;12.10;91.20;;;;;;5101769;28;20463;-71
2021/09/18 05:38:53;;;;;;;7.43;5.20;;;12.20;91.10;;;;;;5084937;28;20025;-71
2021/09/18 05:41:19;;;;;;;7.60;5.53;;;12.20;91.20;;;;;;5067602;28;20080;-73
2021/09/18 05:43:45;;;;;;;7.73;6.07;;;12.20;91.30;;;;;;5084089;28;20283;-73
2021/09/18 05:46:11;;;;;;;8.67;6.77;;;12.20;91.30;;;;;;5085163;28;20354;-73
2021/09/18 05:48:37;;;;;;;10.25;7.00;;;12.20;91.30;;;;;;5067103;28;20074;-73
2021/09/18 05:51:02;;;;;;;9.27;6.72;;;12.30;91.20;;;;;;5066368;28;20039;-73
2021/09/18 05:53:28;;;;;;;9.27;5.83;;;12.40;91.00;;;;;;5085196;28;20079;-72
2021/09/18 05:55:54;;;;;;;7.77;6.00;;;12.40;91.10;;;;;;5049791;28;20024;-73
2021/09/18 05:58:20;;;;;;;11.97;6.03;;;12.50;91.00;;;;;;5084060;28;20121;-73
2021/09/18 06:00:46;;;;;;;8.63;6.07;;;12.50;91.00;;;;;;5050595;28;20020;-73
2021/09/18 06:03:11;;;;;;;9.40;6.30;;;12.50;91.00;;;;;;5049505;28;20333;-73
2021/09/18 06:05:37;;;;;;;12.37;8.17;;;12.60;91.20;;;;;;5034008;28;20020;-73
2021/09/18 06:08:03;;;;;;;9.18;6.72;;;12.60;91.20;;;;;;5066868;28;20029;-73
2021/09/18 06:10:30;;;;;;;9.63;6.18;;;12.70;90.70;;;;;;5083457;28;20043;-73
2021/09/18 06:12:55;;;;;;;8.55;6.50;;;12.70;90.70;;;;;;5033426;28;20016;-73
2021/09/18 06:15:21;;;;;;;11.63;6.77;;;12.80;90.80;;;;;;5066086;28;20078;-73
2021/09/18 06:17:47;;;;;;;9.13;6.40;;;12.70;90.60;;;;;;5066577;28;20118;-73
2021/09/18 06:20:13;;;;;;;7.13;5.53;;;12.80;90.70;;;;;;5050269;28;20028;-73
2021/09/18 06:22:39;;;;;;;9.43;6.70;;;12.90;90.60;;;;;;5065732;28;20043;-73
2021/09/18 06:25:05;;;;;;;8.35;5.68;;;13.00;90.30;;;;;;5084541;28;20364;-74
2021/09/18 06:27:31;;;;;;;8.32;6.15;;;12.90;90.40;;;;;;5066379;28;20079;-72
2021/09/18 06:29:57;;;;;;;9.90;6.05;;;12.80;90.40;;;;;;5065808;28;20051;-72
2021/09/18 06:32:23;;;;;;;8.80;6.27;;;12.90;90.60;;;;;;5066262;28;20384;-72
2021/09/18 06:34:49;;;;;;;9.27;6.10;;;12.90;90.70;;;;;;5066678;28;20222;-72
2021/09/18 06:37:15;;;;;;;11.27;6.67;;;12.90;90.60;;;;;;5084273;28;20044;-72
2021/09/18 06:39:40;;;;;;;8.80;5.60;;;13.00;90.40;;;;;;5065433;28;20241;-71
2021/09/18 06:42:06;;;;;;;8.90;5.43;;;12.90;90.40;;;;;;5083765;28;20024;-71
2021/09/18 06:44:32;;;;;;;9.73;6.13;;;13.00;90.30;;;;;;5065596;28;20380;-72
2021/09/18 06:46:58;;;;;;;9.27;5.43;;;13.00;90.20;;;;;;5033170;28;20024;-71
2021/09/18 06:49:24;;;;;;;10.93;7.27;;;13.10;89.70;;;;;;5083872;28;20017;-72
2021/09/18 06:51:49;;;;;;;10.52;7.32;;;13.20;89.70;;;;;;5049357;28;20294;-72
2021/09/18 06:54:15;;;;;;;15.70;10.17;;;13.10;89.70;;;;;;5084069;28;20020;-72
2021/09/18 06:56:41;;;;;;;13.47;9.37;;;13.00;89.80;;;;;;5033004;28;20016;-72
2021/09/18 06:59:07;;;;;;;14.17;8.43;;;13.00;90.10;;;;;;5065770;28;20029;-71
2021/09/18 07:01:33;;;;;;;12.03;7.83;;;13.00;90.50;;;;;;5065654;28;20026;-72
2021/09/18 07:03:59;;;;;;;12.18;8.75;;;13.10;90.10;;;;;;5083726;28;20073;-72
2021/09/18 07:06:24;;;;;;;11.80;7.90;;;13.20;90.00;;;;;;5083585;28;20029;-71
2021/09/18 07:08:53;;;;;;;11.43;7.73;;;13.20;90.00;;;;;;5065929;28;20250;-72
2021/09/18 07:11:19;;;;;;;10.77;6.90;;;13.20;90.10;;;;;;5065689;28;20039;-71
2021/09/18 07:13:45;;;;;;;11.98;7.85;;;13.30;90.00;;;;;;5065812;28;20016;-72
2021/09/18 07:16:11;;;;;;;13.07;9.10;;;13.40;90.20;;;;;;5049076;28;20021;-72
2021/09/18 07:18:37;;;;;;;13.23;8.70;;;13.50;90.20;;;;;;5065724;28;20185;-72
2021/09/18 07:21:03;;;;;;;13.27;8.83;;;13.50;90.10;;;;;;5082957;28;20029;-72
2021/09/18 07:23:29;;;;;;;12.20;7.53;;;13.50;89.20;;;;;;5065037;28;20234;-71
2021/09/18 07:25:55;;;;;;;12.70;8.40;;;13.60;89.70;;;;;;5065518;28;20024;-71
2021/09/18 07:28:21;;;;;;;13.57;8.73;;;13.60;89.50;;;;;;5048845;28;20037;-72
2021/09/18 07:30:46;;;;;;;13.13;9.47;;;13.70;89.40;;;;;;5082708;28;20032;-72
2021/09/18 07:33:12;;;;;;;15.10;8.83;;;13.80;89.00;;;;;;5065386;28;20020;-72
2021/09/18 07:35:38;;;;;;;12.90;8.57;;;13.90;89.00;;;;;;5048868;28;20070;-72
2021/09/18 07:38:04;;;;;;;13.63;8.07;;;13.90;88.70;;;;;;5083077;28;20230;-72
2021/09/18 07:40:32;;;;;;;14.35;8.80;;;13.90;88.90;;;;;;5065066;28;20035;-72
2021/09/18 07:42:59;;;;;;;12.60;7.95;;;14.00;89.20;;;;;;5065138;28;20090;-72
2021/09/18 07:45:24;;;;;;;13.45;8.93;;;14.10;89.80;;;;;;5048617;28;20339;-72
2021/09/18 07:47:50;;;;;;;13.53;8.83;;;14.00;88.40;;;;;;5065002;28;20037;-71
2021/09/18 07:50:16;;;;;;;12.57;8.73;;;14.00;88.40;;;;;;5081470;28;20093;-71
2021/09/18 07:52:42;;;;;;;14.77;9.73;;;14.10;88.00;;;;;;5064803;28;20066;-71
2021/09/18 07:55:09;;;;;;;14.80;9.33;;;14.00;88.10;;;;;;5065045;28;20028;-72
2021/09/18 07:57:36;;;;;;;14.57;9.63;;;14.10;88.70;;;;;;5064397;28;20099;-72
2021/09/18 08:00:04;;;;;;;16.73;9.88;;;14.10;89.10;;;;;;5048071;28;20097;-72
2021/09/18 08:02:30;;;;;;;14.52;10.05;;;14.20;89.50;;;;;;5082283;28;20035;-71
2021/09/18 08:04:56;;;;;;;16.83;10.87;;;14.30;88.50;;;;;;5065365;28;20087;-72
2021/09/18 08:07:22;;;;;;;16.43;11.07;;;14.40;88.70;;;;;;5082601;28;20028;-71
2021/09/18 08:09:49;;;;;;;15.27;10.17;;;14.50;89.20;;;;;;5082762;28;20020;-71
2021/09/18 08:12:15;;;;;;;15.60;10.82;;;14.40;87.50;;;;;;5064494;28;20325;-71
2021/09/18 08:14:41;;;;;;;16.15;10.55;;;14.50;88.50;;;;;;5048404;28;20021;-71
2021/09/18 08:17:07;;;;;;;13.93;10.13;;;14.60;87.90;;;;;;5082576;28;20231;-71
2021/09/18 08:19:33;;;;;;;11.60;9.20;;;14.70;88.20;;;;;;5082637;28;20257;-70
2021/09/18 08:21:58;;;;;;;14.77;9.33;;;14.80;88.20;;;;;;5081687;28;20028;-70
2021/09/18 08:24:24;;;;;;;14.23;10.20;;;14.90;87.70;;;;;;5065046;28;20097;-71
2021/09/18 08:26:50;;;;;;;16.70;10.07;;;15.10;86.50;;;;;;5064758;28;20084;-70
2021/09/18 08:29:16;;;;;;;14.83;10.20;;;15.10;87.30;;;;;;5082207;28;20046;-71
2021/09/18 08:31:42;;;;;;;13.63;8.93;;;15.30;87.50;;;;;;5082084;28;20017;-71
2021/09/18 08:34:09;;;;;;;14.50;9.97;;;15.40;85.50;;;;;;5082502;28;20097;-70
2021/09/18 08:36:34;;;;;;;13.35;9.70;;;15.60;85.20;;;;;;5051234;28;20048;-71
2021/09/18 08:39:00;;;;;;;15.53;10.47;;;15.70;86.30;;;;;;5068625;28;20034;-71
2021/09/18 08:41:26;;;;;;;12.50;9.13;;;15.80;85.60;;;;;;5086211;28;20315;-71
2021/09/18 08:43:52;;;;;;;15.67;10.60;;;16.00;86.00;;;;;;5052112;28;20032;-71
2021/09/18 08:46:18;;;;;;;14.90;9.80;;;16.10;85.40;;;;;;5067669;28;20091;-71
2021/09/18 08:48:44;;;;;;;11.00;7.80;;;16.30;83.20;;;;;;5068628;28;20263;-71
2021/09/18 08:51:10;;;;;;;14.02;9.73;;;16.50;82.40;;;;;;5068216;28;20024;-71
2021/09/18 08:53:37;;;;;;;13.27;9.23;;;16.60;83.50;;;;;;5086267;28;20247;-71
2021/09/18 08:56:03;;;;;;;13.18;8.73;;;16.70;83.90;;;;;;5084970;28;20054;-71
2021/09/18 08:58:29;;;;;;;12.40;9.40;;;16.70;80.70;;;;;;5067662;28;20377;-71
2021/09/18 09:00:56;;;;;;;12.73;8.60;;;16.70;80.70;;;;;;5068088;28;20024;-71
2021/09/18 09:03:31;;;;;;;16.45;9.88;;;17.00;79.90;;;;;;5050906;28;20062;-71
2021/09/18 09:06:04;;;;;;;14.48;9.18;;;16.90;78.70;;;;;;5068499;28;20066;-70
2021/09/18 09:08:30;;;;;;;15.45;9.43;;;17.10;78.30;;;;;;5067866;28;20070;-70
2021/09/18 09:10:56;;;;;;;13.80;9.00;;;17.10;79.40;;;;;;5085383;28;20219;-70
2021/09/18 09:13:23;;;;;;;14.60;9.90;;;17.20;81.40;;;;;;5067243;28;20027;-71
2021/09/18 09:16:05;;;;;;;15.45;9.73;;;17.20;81.60;;;;;;5068136;28;20024;-71
2021/09/18 09:18:36;;;;;;;15.82;11.05;;;17.30;82.30;;;;;;5052726;28;20044;-71
2021/09/18 09:21:23;;;;;;;13.93;9.25;;;17.40;82.80;;;;;;5035770;28;20226;-71
2021/09/18 09:24:10;;;;;;;16.60;10.77;;;17.70;79.90;;;;;;5050540;28;20088;-71
2021/09/18 09:26:38;;;;;;;16.48;11.18;;;17.70;76.80;;;;;;5085463;28;20315;-71
2021/09/18 09:29:04;;;;;;;18.20;10.80;;;17.80;78.10;;;;;;5066702;28;20051;-71
2021/09/18 09:31:33;;;;;;;16.97;11.20;;;17.70;77.20;;;;;;5085200;28;20315;-71
2021/09/18 09:34:15;;;;;;;12.68;9.52;;;17.70;76.70;;;;;;5034305;28;20017;-71
2021/09/18 09:36:46;;;;;;;14.68;9.30;;;17.80;78.20;;;;;;5085413;28;20024;-71
2021/09/18 09:39:20;;;;;;;15.32;9.32;;;17.90;76.80;;;;;;5034310;28;20087;-71
2021/09/18 09:41:48;;;;;;;15.30;10.77;;;17.80;75.50;;;;;;5083958;28;20035;-71
2021/09/18 09:44:19;;;;;;;15.85;10.30;;;17.90;74.30;;;;;;5083935;28;20020;-71
2021/09/18 09:47:09;;;;;;;15.77;8.90;;;18.00;76.10;;;;;;5066598;28;20204;-70
2021/09/18 09:49:53;;;;;;;12.20;8.32;;;18.10;77.60;;;;;;5050750;28;20053;-71
2021/09/18 09:52:22;;;;;;;14.07;8.70;;;18.20;76.20;;;;;;5019258;28;20028;-71
2021/09/18 09:54:48;;;;;;;13.18;8.50;;;18.30;75.00;;;;;;5085027;28;20211;-71
2021/09/18 09:57:14;;;;;;;11.90;8.50;;;18.20;74.00;;;;;;5049942;28;20032;-71
2021/09/18 09:59:40;;;;;;;14.40;8.38;;;18.30;72.20;;;;;;5050452;28;20322;-72
2021/09/18 10:02:11;;;;;;;16.17;9.57;;;18.40;72.40;;;;;;5050269;28;20039;-71
2021/09/18 10:04:37;;;;;;;14.82;9.48;;;18.40;68.70;;;;;;5014642;28;20031;-71
2021/09/18 10:07:04;;;;;;;15.82;9.90;;;18.60;69.30;;;;;;5030614;28;20319;-71
2021/09/18 10:09:30;;;;;;;14.95;9.45;;;18.80;69.40;;;;;;5045913;28;20020;-71
2021/09/18 10:11:57;;;;;;;14.63;9.87;;;18.80;66.10;;;;;;5017251;28;20016;-71
2021/09/18 10:14:25;;;;;;;16.08;10.32;;;18.90;67.10;;;;;;5083418;28;20294;-72
2021/09/18 10:16:55;;;;;;;13.85;9.65;;;19.20;68.20;;;;;;5050567;28;20326;-71
2021/09/18 10:19:40;;;;;;;12.75;8.27;;;19.30;67.80;;;;;;5050263;28;20051;-71
2021/09/18 10:24:56;;;;;;;18.67;12.50;;;19.40;66.20;;;;;;5068536;28;20050;-72
2021/09/18 10:27:24;;;;;;;11.80;8.52;;;19.40;67.30;;;;;;5053854;28;20025;-71
2021/09/18 10:29:50;;;;;;;12.40;8.00;;;19.40;66.30;;;;;;5051470;28;20203;-72
2021/09/18 10:32:17;;;;;;;14.52;10.18;;;19.40;67.00;;;;;;5049546;28;20017;-71
2021/09/18 10:34:43;;;;;;;18.83;11.52;;;19.40;65.90;;;;;;5065670;28;20055;-72
2021/09/18 10:37:34;;;;;;;15.07;9.87;;;19.40;64.60;;;;;;5066276;28;20024;-70
2021/09/18 10:40:09;;;;;;;14.82;9.82;;;19.50;66.20;;;;;;5049419;28;20027;-70
2021/09/18 10:42:44;;;;;;;13.85;8.95;;;19.50;66.70;;;;;;5066759;28;20038;-70
2021/09/18 10:45:11;;;;;;;13.18;8.30;;;19.50;68.50;;;;;;5050931;28;20090;-70
2021/09/18 10:47:49;;;;;;;11.85;8.15;;;19.40;66.00;;;;;;5066271;28;20031;-71
2021/09/18 10:50:26;;;;;;;10.73;7.13;;;19.30;66.00;;;;;;5082798;28;20350;-71
2021/09/18 10:53:06;;;;;;;;;;;19.10;67.50;;;;;;5084038;28;20041;-70
2021/09/18 10:55:49;;;;;;;10.73;7.38;;;19.00;68.10;;;;;;5083847;28;19911;-70
2021/09/18 10:58:15;;;;;;;11.25;7.93;;;19.00;69.60;;;;;;5055994;28;20017;-71
2021/09/18 11:00:44;;;;;;;12.07;7.93;;;19.60;67.30;;;;;;5065751;28;20250;-71
2021/09/18 11:03:10;;;;;;;10.55;7.47;;;19.90;66.80;;;;;;5049078;28;20211;-71
2021/09/18 11:05:39;;;;;;;10.38;7.40;;;20.20;65.10;;;;;;5083396;28;20057;-71
2021/09/18 11:08:14;;;;;;;10.43;7.47;;;20.10;63.50;;;;;;5083686;28;20052;-71
2021/09/18 11:10:45;;;;;;;10.88;7.38;;;20.30;66.40;;;;;;5083702;28;20024;-71
2021/09/18 11:13:11;;;;;;;12.23;8.48;;;20.80;64.50;;;;;;5081257;28;20201;-71
2021/09/18 11:15:47;;;;;;;13.00;7.82;;;20.70;59.40;;;;;;5055358;28;20028;-73
2021/09/18 11:18:42;;;;;;;8.77;6.88;;;20.60;60.70;;;;;;5059079;28;20323;-71
2021/09/18 11:21:24;;;;;;;9.35;7.40;;;20.60;61.40;;;;;;5071383;28;20042;-74
2021/09/18 11:24:04;;;;;;;8.98;6.43;;;21.20;62.30;;;;;;5073311;28;20061;-72
2021/09/18 11:26:39;;;;;;;7.80;6.13;;;21.90;60.90;;;;;;5060412;28;20028;-70
2021/09/18 11:29:19;;;;;;;10.48;6.65;;;22.00;58.10;;;;;;5073971;28;20342;-69
2021/09/18 11:32:05;;;;;;;7.60;5.90;;;21.60;57.50;;;;;;5057299;28;20311;-69
2021/09/18 11:34:57;;;;;;;7.68;6.00;;;21.30;58.50;;;;;;5091689;28;20032;-69
2021/09/18 11:37:31;;;;;;;8.60;6.10;;;21.10;59.50;;;;;;5089384;28;20036;-68
2021/09/18 11:40:00;;;;;;;7.45;5.32;;;21.00;60.00;;;;;;5075435;28;20111;-69
2021/09/18 11:42:41;;;;;;;7.07;5.43;;;20.80;60.00;;;;;;5074440;28;20012;-68
2021/09/18 11:45:24;;;;;;;6.55;5.20;;;22.00;59.50;;;;;;5078254;22;20442;-70
2021/09/18 11:47:57;;;;;;;8.60;5.30;;;23.80;52.70;;;;;;5055744;28;20251;-70
2021/09/18 11:50:26;;;;;;;6.07;4.75;;;25.00;50.20;;;;;;5043456;28;20042;-70
2021/09/18 11:53:03;;;;;;;9.93;6.85;;;25.10;48.80;;;;;;5061550;28;20094;-70
2021/09/18 11:55:33;;;;;;;6.95;4.68;;;24.80;46.80;;;;;;5061461;28;20076;-71
2021/09/18 11:58:26;;;;;;;5.05;3.50;;;24.80;48.00;;;;;;5063036;28;20033;-71
2021/09/18 12:00:57;;;;;;;4.63;3.72;;;25.70;46.30;;;;;;5062223;28;20278;-71
2021/09/18 12:03:27;;;;;;;5.68;3.95;;;26.50;43.40;;;;;;5043314;28;20390;-71
2021/09/18 12:05:59;;;;;;;4.18;3.15;;;27.50;43.70;;;;;;5033462;28;20018;-71
2021/09/18 12:08:30;;;;;;;4.43;3.70;;;28.60;42.30;;;;;;5022385;28;20093;-70
2021/09/18 12:11:17;;;;;;;4.57;3.30;;;29.10;40.60;;;;;;5033538;28;20021;-70
2021/09/18 12:13:46;;;;;;;;;;;30.10;37.70;;;;;;5042638;28;20024;-71
2021/09/18 12:16:14;;;;;;;2.97;2.72;;;30.20;37.90;;;;;;5042744;28;19968;-69
2021/09/18 12:18:47;;;;;;;4.13;3.35;;;30.80;36.70;;;;;;5044363;28;20121;-69
2021/09/18 12:21:17;;;;;;;3.20;2.90;;;30.40;36.20;;;;;;5042137;28;20038;-68
2021/09/18 12:23:46;;;;;;;3.50;3.08;;;29.50;38.70;;;;;;5040752;28;20071;-69
2021/09/18 12:26:12;;;;;;;4.35;3.00;;;29.50;38.60;;;;;;5041338;28;20141;-69
2021/09/18 12:28:39;;;;;;;3.42;3.00;;;29.10;36.60;;;;;;5042865;28;20268;-69
2021/09/18 12:31:24;;;;;;;3.35;2.88;;;30.30;35.90;;;;;;5041769;28;20021;-69
2021/09/18 12:33:51;;;;;;;2.90;2.47;;;30.20;36.00;;;;;;5038611;28;20017;-70
2021/09/18 12:36:19;;;;;;;3.13;2.80;;;30.60;36.40;;;;;;5021798;28;20022;-69
2021/09/18 12:38:46;;;;;;;2.90;2.55;;;31.80;34.40;;;;;;5022464;28;20376;-69
2021/09/18 12:41:14;;;;;;;2.97;2.75;;;31.10;33.10;;;;;;5022513;28;20102;-69
2021/09/18 12:44:01;;;;;;;3.63;3.00;;;28.30;37.80;;;;;;5022594;28;20137;-69
2021/09/18 12:46:27;;;;;;;3.63;3.10;;;27.00;39.40;;;;;;5036959;28;20030;-68
2021/09/18 12:49:02;;;;;;;3.35;3.00;;;26.50;41.30;;;;;;5041366;28;20287;-69
2021/09/18 12:51:29;;;;;;;5.18;4.03;;;27.40;40.40;;;;;;5052966;28;20032;-69